Time;durP1;ratioP1;P1;durP2;ratioP2;P2;SDS_P1;SDS_P2;PMS_P1;PMS_P2;Temp;Humidity;BMP_temperature;BMP_pressure;BME280_temperature;BME280_humidity;BME280_pressure;Samples;Min_cycle;Max_cycle;Signal;HPM_P1;HPM_P2
2022/12/24 00:00:32;;;;;;;20.42;3.83;;;10.00;99.90;;;;;;5017357;28;20502;-70
2022/12/24 00:02:57;;;;;;;19.27;2.97;;;10.00;99.90;;;;;;5017774;28;20036;-72
2022/12/24 00:05:23;;;;;;;21.48;3.65;;;10.00;99.90;;;;;;5001364;28;20120;-72
2022/12/24 00:07:49;;;;;;;27.77;3.33;;;10.00;99.90;;;;;;5014222;28;20038;-71
2022/12/24 00:10:14;;;;;;;20.45;2.13;;;10.00;99.90;;;;;;5019386;28;20033;-72
2022/12/24 00:12:40;;;;;;;25.42;4.15;;;10.00;99.90;;;;;;5015539;28;20040;-71
2022/12/24 00:15:06;;;;;;;37.42;4.80;;;10.10;99.90;;;;;;5018649;28;20507;-72
2022/12/24 00:17:32;;;;;;;27.73;4.15;;;10.00;99.90;;;;;;5017234;28;20461;-71
2022/12/24 00:19:58;;;;;;;29.10;5.63;;;9.90;99.90;;;;;;5018031;28;20018;-72
2022/12/24 00:22:23;;;;;;;25.92;3.63;;;10.00;99.90;;;;;;5020177;28;20034;-72
2022/12/24 00:24:49;;;;;;;33.67;3.97;;;9.90;99.90;;;;;;5015731;28;20037;-71
2022/12/24 00:27:15;;;;;;;24.75;3.30;;;9.80;99.90;;;;;;5020106;28;20034;-72
2022/12/24 00:29:40;;;;;;;23.33;2.88;;;9.80;99.90;;;;;;5016898;28;20049;-72
2022/12/24 00:32:08;;;;;;;22.73;2.97;;;9.80;99.90;;;;;;5019542;28;20042;-71
2022/12/24 00:34:35;;;;;;;29.25;4.15;;;9.70;99.90;;;;;;5016379;28;20029;-71
2022/12/24 00:37:01;;;;;;;23.50;4.50;;;9.60;99.90;;;;;;5018526;28;20044;-73
2022/12/24 00:39:27;;;;;;;21.60;3.25;;;9.50;99.90;;;;;;5027187;28;20042;-72
2022/12/24 00:41:52;;;;;;;24.08;4.63;;;9.50;99.90;;;;;;5021678;28;20064;-73
2022/12/24 00:44:18;;;;;;;22.85;3.80;;;9.50;99.90;;;;;;5016444;28;20123;-71
2022/12/24 00:46:43;;;;;;;38.10;4.97;;;9.40;99.90;;;;;;5015246;28;20494;-72
2022/12/24 00:49:11;;;;;;;31.95;4.72;;;9.40;99.90;;;;;;5015454;28;20108;-71
2022/12/24 00:51:37;;;;;;;31.55;4.65;;;9.30;99.90;;;;;;5015388;28;20037;-72
2022/12/24 00:54:03;;;;;;;23.83;3.03;;;9.30;99.90;;;;;;5017208;28;20048;-73
2022/12/24 00:56:29;;;;;;;29.08;4.63;;;9.20;99.90;;;;;;5016528;28;20524;-73
2022/12/24 00:58:54;;;;;;;32.70;3.80;;;9.20;99.90;;;;;;5016408;28;20037;-72
2022/12/24 01:01:21;;;;;;;23.25;3.20;;;9.20;99.90;;;;;;5018892;28;20029;-73
2022/12/24 01:03:47;;;;;;;38.63;4.55;;;9.20;99.90;;;;;;5014306;28;20277;-72
2022/12/24 01:06:15;;;;;;;27.30;3.58;;;9.10;99.90;;;;;;5019725;28;20037;-73
2022/12/24 01:08:42;;;;;;;20.25;4.18;;;9.10;99.90;;;;;;5000049;28;20694;-73
2022/12/24 01:11:09;;;;;;;20.70;2.67;;;9.10;99.90;;;;;;5014997;28;20030;-72
2022/12/24 01:13:35;;;;;;;23.13;4.22;;;9.00;99.90;;;;;;5016661;28;20038;-70
2022/12/24 01:16:01;;;;;;;26.40;3.30;;;9.00;99.90;;;;;;4999966;28;20041;-73
2022/12/24 01:18:27;;;;;;;25.70;3.17;;;9.00;99.90;;;;;;5016167;28;20141;-72
2022/12/24 01:20:58;;;;;;;24.65;3.92;;;9.00;99.90;;;;;;5017923;28;20842;-71
2022/12/24 01:23:23;;;;;;;25.65;3.15;;;8.90;99.90;;;;;;5017064;28;20042;-72
2022/12/24 01:25:49;;;;;;;15.35;3.28;;;8.90;99.90;;;;;;4996258;28;20052;-72
2022/12/24 01:28:15;;;;;;;33.92;5.43;;;8.90;99.90;;;;;;5019641;28;20087;-73
2022/12/24 01:30:41;;;;;;;27.10;2.85;;;8.90;99.90;;;;;;5014576;28;20435;-71
2022/12/24 01:33:06;;;;;;;24.38;3.47;;;8.90;99.90;;;;;;5018877;28;20581;-72
2022/12/24 01:35:32;;;;;;;21.35;3.28;;;8.90;99.90;;;;;;5015827;28;20085;-73
2022/12/24 01:37:57;;;;;;;28.58;3.78;;;8.80;99.90;;;;;;5017531;28;20084;-72
2022/12/24 01:43:22;;;;;;;26.38;3.00;;;8.70;99.90;;;;;;5018209;28;20124;-72
2022/12/24 01:45:50;;;;;;;18.25;3.90;;;8.60;99.90;;;;;;5012025;28;20038;-72
2022/12/24 01:48:22;;;;;;;23.60;3.28;;;8.60;99.90;;;;;;5018892;28;20037;-72
2022/12/24 01:50:52;;;;;;;24.73;2.95;;;8.50;99.90;;;;;;5014393;28;20392;-72
2022/12/24 01:53:18;;;;;;;23.63;3.45;;;8.40;99.90;;;;;;5018663;28;20041;-72
2022/12/24 01:55:45;;;;;;;17.45;3.30;;;8.40;99.90;;;;;;5014522;28;20034;-72
2022/12/24 01:58:15;;;;;;;22.23;4.07;;;8.30;99.90;;;;;;4994371;28;20096;-72
2022/12/24 02:00:40;;;;;;;20.60;3.85;;;8.20;99.90;;;;;;5010757;28;20065;-72
2022/12/24 02:03:06;;;;;;;27.92;3.85;;;8.20;99.90;;;;;;5018622;28;20061;-73
2022/12/24 02:05:41;;;;;;;21.25;4.28;;;8.10;99.90;;;;;;5015126;28;20543;-72
2022/12/24 02:08:07;;;;;;;15.50;3.13;;;8.10;99.90;;;;;;5018402;28;20038;-71
2022/12/24 02:10:33;;;;;;;28.77;3.92;;;8.10;99.90;;;;;;5015030;28;20477;-73
2022/12/24 02:13:00;;;;;;;22.45;3.55;;;8.00;99.90;;;;;;5017451;28;20034;-72
2022/12/24 02:15:30;;;;;;;24.00;3.55;;;8.00;99.90;;;;;;5018663;28;20892;-71
2022/12/24 02:18:04;;;;;;;15.40;2.90;;;8.00;99.90;;;;;;5016533;28;20033;-72
2022/12/24 02:20:38;;;;;;;33.05;4.03;;;7.90;99.90;;;;;;5016428;28;20042;-73
2022/12/24 02:23:10;;;;;;;31.48;3.65;;;7.90;99.90;;;;;;5015409;28;20041;-72
2022/12/24 02:25:56;;;;;;;19.58;3.45;;;7.90;99.90;;;;;;5014070;28;20042;-71
2022/12/24 02:28:40;;;;;;;24.02;3.53;;;7.90;99.90;;;;;;5014401;28;20077;-72
2022/12/24 02:31:28;;;;;;;25.17;3.58;;;7.80;99.90;;;;;;5015142;28;20041;-73
2022/12/24 02:33:59;;;;;;;23.25;3.40;;;7.80;99.90;;;;;;5018131;28;20061;-74
2022/12/24 02:36:37;;;;;;;27.08;3.42;;;7.80;99.90;;;;;;5020655;28;20084;-71
2022/12/24 02:39:13;;;;;;;24.70;4.72;;;7.70;99.90;;;;;;5015729;28;20124;-71
2022/12/24 02:44:30;;;;;;;35.25;4.10;;;7.70;99.90;;;;;;5016022;28;20096;-72
2022/12/24 02:46:59;;;;;;;29.17;3.88;;;7.80;99.90;;;;;;5019668;28;20044;-73
2022/12/24 02:49:25;;;;;;;34.78;4.32;;;7.80;99.90;;;;;;5001634;28;20096;-72
2022/12/24 02:51:50;;;;;;;22.30;3.22;;;7.90;99.90;;;;;;5014791;28;20038;-72
2022/12/24 02:54:17;;;;;;;29.50;4.18;;;7.90;99.90;;;;;;5018839;28;20037;-72
2022/12/24 02:57:04;;;;;;;25.95;4.18;;;7.90;99.90;;;;;;5017770;28;20041;-72
2022/12/24 02:59:54;;;;;;;27.55;4.97;;;8.00;99.90;;;;;;5018337;28;20037;-72
2022/12/24 03:02:40;;;;;;;25.92;3.30;;;8.10;99.90;;;;;;4999973;28;20555;-72
2022/12/24 03:05:24;;;;;;;26.45;4.57;;;8.10;99.90;;;;;;5012367;28;20045;-72
2022/12/24 03:08:09;;;;;;;26.70;3.88;;;8.20;99.90;;;;;;5016805;28;20034;-72
2022/12/24 03:10:58;;;;;;;28.63;3.58;;;8.20;99.90;;;;;;5014195;28;21497;-72
2022/12/24 03:13:26;;;;;;;24.73;3.85;;;8.20;99.90;;;;;;5012043;28;20026;-72
2022/12/24 03:15:51;;;;;;;27.08;3.75;;;8.30;99.90;;;;;;5017224;28;20026;-70
2022/12/24 03:18:21;;;;;;;21.27;2.60;;;8.30;99.90;;;;;;5017976;28;20053;-71
2022/12/24 03:20:53;;;;;;;15.85;1.77;;;8.30;99.90;;;;;;5019033;28;20044;-71
2022/12/24 03:23:19;;;;;;;24.95;3.45;;;8.40;99.90;;;;;;5019332;28;20041;-71
2022/12/24 03:25:44;;;;;;;25.05;2.83;;;8.40;99.90;;;;;;5016664;28;20041;-72
2022/12/24 03:28:13;;;;;;;22.10;3.88;;;8.40;99.90;;;;;;5021299;28;20405;-72
2022/12/24 03:30:41;;;;;;;25.17;4.57;;;8.40;99.90;;;;;;5017309;28;20053;-71
2022/12/24 03:33:07;;;;;;;33.95;3.97;;;8.50;99.90;;;;;;5021678;28;20037;-69
2022/12/24 03:35:33;;;;;;;29.15;3.28;;;8.50;99.90;;;;;;5016445;28;20042;-71
2022/12/24 03:37:59;;;;;;;23.15;4.28;;;8.50;99.90;;;;;;5020375;28;20036;-74
2022/12/24 03:40:24;;;;;;;19.08;2.97;;;8.60;99.90;;;;;;5017414;28;20044;-72
2022/12/24 03:42:50;;;;;;;26.50;3.85;;;8.60;99.90;;;;;;5016388;28;20033;-70
2022/12/24 03:45:16;;;;;;;30.80;3.53;;;8.60;99.90;;;;;;5020870;28;20042;-72
2022/12/24 03:47:41;;;;;;;25.63;4.55;;;8.70;99.90;;;;;;5017284;28;20065;-72
2022/12/24 03:50:07;;;;;;;30.33;4.18;;;8.70;99.90;;;;;;5020541;28;20061;-73
2022/12/24 03:52:33;;;;;;;26.05;3.33;;;8.80;99.90;;;;;;5012216;28;20045;-72
2022/12/24 03:54:58;;;;;;;27.65;4.03;;;8.90;99.90;;;;;;5018106;28;20021;-71
2022/12/24 03:57:24;;;;;;;38.65;4.50;;;8.90;99.90;;;;;;5017555;28;20102;-73
2022/12/24 03:59:50;;;;;;;28.52;4.32;;;8.90;99.90;;;;;;5017800;28;20033;-72
2022/12/24 04:02:15;;;;;;;38.72;5.43;;;8.90;99.90;;;;;;5018566;28;20053;-71
2022/12/24 04:04:41;;;;;;;33.08;6.03;;;8.90;99.90;;;;;;5016337;28;20037;-72
2022/12/24 04:07:06;;;;;;;33.05;4.57;;;9.00;99.90;;;;;;5020732;28;20371;-72
2022/12/24 04:09:33;;;;;;;28.35;4.95;;;9.00;99.90;;;;;;5015666;28;20026;-71
2022/12/24 04:11:58;;;;;;;30.75;4.65;;;9.00;99.90;;;;;;5019933;28;20185;-72
2022/12/24 04:14:24;;;;;;;29.65;5.05;;;9.00;99.90;;;;;;5017838;28;20044;-69
2022/12/24 04:16:49;;;;;;;21.48;3.30;;;9.00;99.90;;;;;;5017865;28;20135;-72
2022/12/24 04:19:15;;;;;;;28.70;3.85;;;9.00;99.90;;;;;;5015362;28;20105;-71
2022/12/24 04:21:41;;;;;;;27.92;4.53;;;9.00;99.90;;;;;;5016501;28;20045;-71
2022/12/24 04:24:06;;;;;;;28.50;3.42;;;9.00;99.90;;;;;;5020062;28;20036;-71
2022/12/24 04:26:32;;;;;;;23.98;4.22;;;9.00;99.90;;;;;;5012709;28;20029;-72
2022/12/24 04:28:58;;;;;;;26.20;5.18;;;9.00;99.90;;;;;;5016874;28;20033;-73
2022/12/24 04:31:23;;;;;;;33.72;3.70;;;9.00;99.90;;;;;;5019469;28;20069;-72
2022/12/24 04:33:52;;;;;;;27.05;3.15;;;9.00;99.90;;;;;;5019304;28;20091;-73
2022/12/24 04:36:18;;;;;;;26.60;3.53;;;9.00;99.90;;;;;;5018529;28;20049;-72
2022/12/24 04:38:45;;;;;;;24.73;2.72;;;9.10;99.90;;;;;;5016738;28;20037;-72
2022/12/24 04:41:15;;;;;;;27.50;4.55;;;9.10;99.90;;;;;;5019165;28;20029;-72
2022/12/24 04:43:41;;;;;;;26.70;4.23;;;9.10;99.90;;;;;;5015718;28;20108;-72
2022/12/24 04:46:10;;;;;;;30.80;3.70;;;9.10;99.90;;;;;;5020186;28;20029;-72
2022/12/24 04:48:36;;;;;;;27.98;4.38;;;9.20;99.90;;;;;;5018297;28;20091;-72
2022/12/24 04:51:03;;;;;;;25.27;3.38;;;9.20;99.90;;;;;;5015776;28;20399;-72
2022/12/24 04:53:30;;;;;;;28.52;4.57;;;9.10;99.90;;;;;;5009584;28;20030;-74
2022/12/24 04:55:55;;;;;;;24.95;3.25;;;9.10;99.90;;;;;;5017794;28;20123;-72
2022/12/24 04:58:21;;;;;;;18.80;2.28;;;9.10;99.90;;;;;;5017278;28;20052;-73
2022/12/24 05:00:47;;;;;;;37.15;4.90;;;9.10;99.90;;;;;;5017041;28;20038;-73
2022/12/24 05:03:12;;;;;;;25.05;3.47;;;9.20;99.90;;;;;;5018052;28;20038;-72
2022/12/24 05:05:38;;;;;;;24.52;3.65;;;9.20;99.90;;;;;;5015706;28;20062;-72
2022/12/24 05:08:05;;;;;;;33.30;3.75;;;9.10;99.90;;;;;;5019780;28;20508;-72
2022/12/24 05:10:30;;;;;;;18.02;3.53;;;9.20;99.90;;;;;;5014796;28;20092;-72
2022/12/24 05:12:56;;;;;;;33.65;3.13;;;9.20;99.90;;;;;;5018147;28;20029;-71
2022/12/24 05:15:22;;;;;;;29.20;4.80;;;9.20;99.90;;;;;;5016865;28;20498;-72
2022/12/24 05:17:47;;;;;;;35.33;4.63;;;9.20;99.90;;;;;;4999303;28;20030;-72
2022/12/24 05:20:13;;;;;;;20.55;2.75;;;9.20;99.90;;;;;;5016270;28;20026;-73
2022/12/24 05:28:07;;;;;;;33.47;6.38;;;9.20;99.90;;;;;;5013030;28;20045;-71
2022/12/24 05:30:33;;;;;;;28.38;5.68;;;9.20;99.90;;;;;;5017961;28;20026;-72
2022/12/24 05:32:59;;;;;;;28.00;4.25;;;9.20;99.90;;;;;;5019614;28;20494;-72
2022/12/24 05:35:24;;;;;;;29.30;3.10;;;9.30;99.90;;;;;;5016543;28;20041;-71
2022/12/24 05:37:50;;;;;;;24.40;2.88;;;9.30;99.90;;;;;;5017486;28;20029;-72
2022/12/24 05:40:15;;;;;;;26.60;4.45;;;9.30;99.90;;;;;;5017161;28;20037;-73
2022/12/24 05:42:41;;;;;;;32.80;4.22;;;9.40;99.90;;;;;;4997875;28;20030;-72
2022/12/24 05:45:07;;;;;;;33.85;4.28;;;9.40;99.90;;;;;;4995434;28;20121;-73
2022/12/24 05:47:33;;;;;;;36.38;5.57;;;9.30;99.90;;;;;;5015617;28;20085;-72
2022/12/24 05:49:58;;;;;;;24.83;3.13;;;9.30;99.90;;;;;;5015741;28;20057;-71
2022/12/24 05:52:24;;;;;;;34.03;4.57;;;9.30;99.90;;;;;;5018144;28;20045;-72
2022/12/24 05:54:49;;;;;;;32.92;3.85;;;9.30;99.90;;;;;;5014313;28;20490;-72
2022/12/24 05:57:15;;;;;;;23.92;4.22;;;9.30;99.90;;;;;;4999774;28;20049;-73
2022/12/24 05:59:41;;;;;;;26.55;3.88;;;9.30;99.90;;;;;;5016363;28;20025;-71
2022/12/24 06:02:06;;;;;;;41.05;4.45;;;9.30;99.90;;;;;;5016516;28;20076;-72
2022/12/24 06:04:32;;;;;;;31.63;4.65;;;9.30;99.90;;;;;;5016477;28;20426;-72
2022/12/24 06:06:57;;;;;;;28.83;3.38;;;9.20;99.90;;;;;;5021698;28;20033;-71
2022/12/24 06:09:23;;;;;;;33.50;4.15;;;9.20;99.90;;;;;;5018877;28;20075;-72
2022/12/24 06:11:49;;;;;;;38.47;5.32;;;9.30;99.90;;;;;;5020482;28;20095;-72
2022/12/24 06:14:14;;;;;;;32.83;5.97;;;9.30;99.90;;;;;;5018264;28;20037;-71
2022/12/24 06:16:40;;;;;;;36.40;4.65;;;9.30;99.90;;;;;;5015988;28;20026;-71
2022/12/24 06:19:05;;;;;;;44.80;3.95;;;9.30;99.90;;;;;;5015660;28;20395;-72
2022/12/24 06:21:31;;;;;;;27.50;4.18;;;9.20;99.90;;;;;;5017817;28;20134;-72
2022/12/24 06:23:57;;;;;;;35.05;4.60;;;9.30;99.90;;;;;;5017150;28;20045;-71
2022/12/24 06:26:22;;;;;;;34.03;5.15;;;9.30;99.90;;;;;;5017737;28;20079;-71
2022/12/24 06:28:49;;;;;;;51.75;4.80;;;9.30;99.90;;;;;;5018398;28;20111;-72
2022/12/24 06:31:17;;;;;;;37.47;4.72;;;9.30;99.90;;;;;;5020790;28;20049;-71
2022/12/24 06:33:43;;;;;;;31.45;4.40;;;9.30;99.90;;;;;;5019686;28;20553;-71
2022/12/24 06:36:14;;;;;;;28.75;4.85;;;9.30;99.90;;;;;;5020656;28;20489;-73
2022/12/24 06:38:39;;;;;;;29.75;5.25;;;9.30;99.90;;;;;;5018854;28;20084;-71
2022/12/24 06:41:06;;;;;;;39.17;5.80;;;9.30;99.90;;;;;;5003450;28;20041;-73
2022/12/24 06:43:35;;;;;;;45.97;7.10;;;9.30;99.90;;;;;;5018378;28;20049;-72
2022/12/24 06:46:02;;;;;;;41.75;5.22;;;9.30;99.90;;;;;;5021640;28;20034;-73
2022/12/24 06:48:28;;;;;;;40.13;5.78;;;9.40;99.90;;;;;;5010927;28;20379;-70
2022/12/24 06:50:53;;;;;;;41.92;6.07;;;9.30;99.90;;;;;;5013329;28;20033;-73
2022/12/24 06:53:19;;;;;;;32.80;4.47;;;9.30;99.90;;;;;;5016181;28;20101;-71
2022/12/24 06:55:45;;;;;;;37.53;4.53;;;9.30;99.90;;;;;;5014701;28;20048;-73
2022/12/24 06:58:10;;;;;;;28.33;5.00;;;9.30;99.90;;;;;;5019027;28;20505;-71
2022/12/24 07:00:37;;;;;;;36.47;5.82;;;9.20;99.90;;;;;;5017965;28;20070;-73
2022/12/24 07:03:02;;;;;;;46.90;7.15;;;9.20;99.90;;;;;;5021003;28;20025;-70
2022/12/24 07:05:29;;;;;;;37.53;5.07;;;9.10;99.90;;;;;;5001088;28;20122;-70
2022/12/24 07:07:55;;;;;;;38.17;6.45;;;9.10;99.90;;;;;;5003265;28;20029;-72
2022/12/24 07:10:21;;;;;;;37.92;4.90;;;9.10;99.90;;;;;;5015877;28;20041;-73
2022/12/24 07:12:47;;;;;;;39.88;4.88;;;9.00;99.90;;;;;;5013091;28;20033;-72
2022/12/24 07:15:13;;;;;;;48.95;6.22;;;9.00;99.90;;;;;;5018197;28;20140;-71
2022/12/24 07:17:39;;;;;;;39.63;5.20;;;9.00;99.90;;;;;;5017400;28;20565;-72
2022/12/24 07:20:07;;;;;;;44.08;5.80;;;8.90;99.90;;;;;;5018113;28;20037;-73
2022/12/24 07:22:32;;;;;;;40.42;6.10;;;8.90;99.90;;;;;;5017836;28;20037;-72
2022/12/24 07:24:58;;;;;;;27.48;4.40;;;8.90;99.90;;;;;;5017100;28;20177;-74
2022/12/24 07:27:23;;;;;;;35.92;5.00;;;8.90;99.90;;;;;;5013937;28;20053;-74
2022/12/24 07:29:49;;;;;;;40.63;5.10;;;8.80;99.90;;;;;;5005622;28;20117;-76
2022/12/24 07:32:14;;;;;;;35.65;5.15;;;8.80;99.90;;;;;;5015067;28;20099;-72
2022/12/24 07:34:40;;;;;;;37.58;5.25;;;8.80;99.90;;;;;;5012182;28;20495;-72
2022/12/24 07:37:06;;;;;;;34.65;6.03;;;8.80;99.90;;;;;;5018287;28;20068;-73
2022/12/24 07:39:32;;;;;;;36.70;5.75;;;8.80;99.90;;;;;;5007890;28;20518;-73
2022/12/24 07:41:58;;;;;;;38.55;4.57;;;8.80;99.90;;;;;;5020280;28;20044;-73
2022/12/24 07:44:24;;;;;;;42.53;4.30;;;8.80;99.90;;;;;;5016146;28;20690;-73
2022/12/24 07:46:50;;;;;;;55.90;6.30;;;8.80;99.90;;;;;;5014508;28;20108;-74
2022/12/24 07:49:15;;;;;;;30.23;4.40;;;8.70;99.90;;;;;;4998377;28;20056;-73
2022/12/24 07:51:41;;;;;;;31.92;5.28;;;8.70;99.90;;;;;;5015001;28;20072;-74
2022/12/24 07:54:06;;;;;;;44.10;5.20;;;8.70;99.90;;;;;;5017847;28;20045;-72
2022/12/24 07:56:32;;;;;;;34.42;4.53;;;8.70;99.90;;;;;;5017557;28;20042;-72
2022/12/24 07:58:58;;;;;;;49.08;5.85;;;8.80;99.90;;;;;;5017027;28;20034;-72
2022/12/24 08:01:23;;;;;;;36.17;5.18;;;8.80;99.90;;;;;;5002619;28;20124;-72
2022/12/24 08:03:53;;;;;;;32.85;4.53;;;8.80;99.90;;;;;;5015009;28;20051;-71
2022/12/24 08:06:20;;;;;;;37.60;5.93;;;8.80;99.90;;;;;;5012335;28;20042;-71
2022/12/24 08:08:45;;;;;;;37.28;5.80;;;8.80;99.90;;;;;;5018010;28;20041;-69
2022/12/24 08:11:11;;;;;;;36.00;4.68;;;8.80;99.90;;;;;;5009523;28;20037;-73
2022/12/24 08:13:37;;;;;;;42.17;5.03;;;8.80;99.90;;;;;;5015424;28;20060;-73
2022/12/24 08:16:03;;;;;;;35.10;4.55;;;8.80;99.90;;;;;;5013779;28;20406;-73
2022/12/24 08:18:29;;;;;;;26.23;4.00;;;8.80;99.90;;;;;;5017002;28;20121;-73
2022/12/24 08:20:54;;;;;;;39.58;4.43;;;8.90;99.90;;;;;;5015064;28;20112;-71
2022/12/24 08:23:20;;;;;;;30.75;3.72;;;8.90;99.90;;;;;;5015406;28;20590;-71
2022/12/24 08:25:47;;;;;;;37.45;4.88;;;8.90;99.90;;;;;;5007759;28;20034;-70
2022/12/24 08:28:14;;;;;;;45.80;6.03;;;8.90;99.90;;;;;;5011228;28;20096;-72
2022/12/24 08:30:40;;;;;;;36.65;6.10;;;9.00;99.90;;;;;;5010305;28;20040;-71
2022/12/24 08:33:06;;;;;;;41.55;5.53;;;9.00;99.90;;;;;;5017174;28;20426;-72
2022/12/24 08:35:32;;;;;;;49.33;4.45;;;9.00;99.90;;;;;;5010882;28;20046;-72
2022/12/24 08:37:57;;;;;;;40.85;4.93;;;9.10;99.90;;;;;;5013054;28;20032;-72
2022/12/24 08:40:23;;;;;;;40.33;5.05;;;9.20;99.90;;;;;;5015777;28;20548;-71
2022/12/24 08:42:49;;;;;;;46.95;6.13;;;9.20;99.90;;;;;;5016786;28;20501;-72
2022/12/24 08:45:15;;;;;;;44.90;4.75;;;9.20;99.90;;;;;;5019565;28;20083;-72
2022/12/24 08:47:41;;;;;;;33.75;4.40;;;9.20;99.90;;;;;;5015105;28;20041;-72
2022/12/24 08:50:07;;;;;;;37.47;4.20;;;9.30;99.90;;;;;;5017573;28;20061;-72
2022/12/24 08:52:33;;;;;;;36.88;4.10;;;9.30;99.90;;;;;;5016287;28;20033;-72
2022/12/24 08:54:58;;;;;;;32.38;4.40;;;9.40;99.90;;;;;;5016888;28;20038;-72
2022/12/24 08:57:24;;;;;;;38.17;5.38;;;9.40;99.90;;;;;;5018607;28;20033;-72
2022/12/24 08:59:49;;;;;;;42.15;5.90;;;9.50;99.90;;;;;;5014562;28;20037;-72
2022/12/24 09:02:15;;;;;;;33.88;4.43;;;9.50;99.90;;;;;;5011362;28;20113;-72
2022/12/24 09:04:41;;;;;;;41.35;5.63;;;9.50;99.90;;;;;;5017044;28;20140;-71
2022/12/24 09:07:07;;;;;;;37.20;4.72;;;9.60;99.90;;;;;;5015236;28;20089;-73
2022/12/24 09:09:34;;;;;;;38.25;6.00;;;9.60;99.90;;;;;;5015759;28;20030;-72
2022/12/24 09:11:59;;;;;;;23.42;3.88;;;9.70;99.90;;;;;;5005522;28;20205;-72
2022/12/24 09:14:25;;;;;;;29.63;5.68;;;9.70;99.90;;;;;;4994525;28;20143;-71
2022/12/24 09:16:50;;;;;;;34.03;4.82;;;9.70;99.90;;;;;;5017230;28;20044;-71
2022/12/24 09:19:16;;;;;;;36.97;3.92;;;9.80;99.90;;;;;;5014929;28;20041;-72
2022/12/24 09:21:42;;;;;;;29.52;3.78;;;9.80;99.90;;;;;;5014901;28;20033;-72
2022/12/24 09:24:08;;;;;;;32.90;4.43;;;9.90;99.90;;;;;;5017847;28;20044;-73
2022/12/24 09:26:35;;;;;;;23.30;3.88;;;9.90;99.90;;;;;;5017212;28;20033;-71
2022/12/24 09:29:01;;;;;;;29.52;4.00;;;10.00;99.90;;;;;;5009479;28;20168;-74
2022/12/24 09:31:27;;;;;;;23.27;4.68;;;10.00;99.90;;;;;;4999668;28;20048;-73
2022/12/24 09:33:53;;;;;;;36.22;4.05;;;10.00;99.90;;;;;;5014534;28;20064;-73
2022/12/24 09:36:20;;;;;;;32.78;4.45;;;10.00;99.90;;;;;;5011260;28;20042;-73
2022/12/24 09:38:46;;;;;;;25.05;4.03;;;10.00;99.90;;;;;;5013794;28;20041;-71
2022/12/24 09:41:33;;;;;;;34.33;5.10;;;10.10;99.90;;;;;;5014272;28;20449;-73
2022/12/24 09:44:27;;;;;;;35.65;3.58;;;10.10;99.90;;;;;;5009981;28;20095;-72
2022/12/24 09:46:55;;;;;;;38.92;4.35;;;10.10;99.90;;;;;;5003975;28;20034;-74
2022/12/24 09:49:26;;;;;;;33.20;5.05;;;10.10;99.90;;;;;;5008570;28;20077;-72
2022/12/24 09:52:03;;;;;;;23.58;3.83;;;10.10;99.90;;;;;;4989819;28;21040;-72
2022/12/24 09:54:34;;;;;;;29.83;3.42;;;10.10;99.90;;;;;;5008301;28;20046;-71
2022/12/24 09:57:01;;;;;;;;;;;10.10;99.90;;;;;;5008126;28;20037;-72
2022/12/24 09:59:39;;;;;;;30.27;5.32;;;10.10;99.90;;;;;;4990968;28;20003;-73
2022/12/24 10:02:16;;;;;;;30.42;5.40;;;10.10;99.90;;;;;;4991156;28;20049;-72
2022/12/24 10:04:44;;;;;;;40.22;3.47;;;10.10;99.90;;;;;;5012394;28;20044;-73
2022/12/24 10:08:00;;;;;;;37.00;3.97;;;10.10;99.90;;;;;;4993234;28;20497;-73
2022/12/24 10:10:25;;;;;;;27.70;3.17;;;10.10;99.90;;;;;;4919162;29;20032;-72
2022/12/24 10:13:28;;;;;;;24.85;3.00;;;10.10;99.90;;;;;;4985560;28;20557;-72
2022/12/24 10:16:06;;;;;;;29.60;4.35;;;10.10;99.90;;;;;;5016100;28;20586;-72
2022/12/24 10:19:03;;;;;;;25.90;4.05;;;10.10;99.90;;;;;;5019057;28;20038;-71
2022/12/24 10:21:58;;;;;;;20.40;3.78;;;10.20;99.90;;;;;;5005594;28;20060;-72
2022/12/24 10:24:35;;;;;;;21.45;4.55;;;10.20;99.90;;;;;;4997233;28;20038;-72
2022/12/24 10:27:15;;;;;;;22.50;4.38;;;10.30;99.90;;;;;;5017175;28;20030;-72
2022/12/24 10:29:51;;;;;;;36.13;5.07;;;10.30;99.90;;;;;;5013295;28;20034;-72
2022/12/24 10:32:25;;;;;;;30.98;4.50;;;10.40;99.90;;;;;;5019217;28;20295;-72
2022/12/24 10:35:17;;;;;;;33.35;3.60;;;10.40;99.90;;;;;;5017837;28;20069;-73
2022/12/24 10:37:46;;;;;;;25.00;4.07;;;10.50;99.90;;;;;;5013772;28;20033;-72
2022/12/24 10:40:36;;;;;;;22.25;4.00;;;10.50;99.90;;;;;;5014546;28;20129;-72
2022/12/24 10:43:12;;;;;;;28.00;4.23;;;10.50;99.90;;;;;;5019008;28;20045;-72
2022/12/24 10:45:43;;;;;;;27.85;3.97;;;10.60;99.90;;;;;;5014864;28;20368;-73
2022/12/24 10:48:15;;;;;;;25.35;2.60;;;10.60;99.90;;;;;;5021609;28;20034;-73
2022/12/24 10:50:59;;;;;;;23.50;2.70;;;10.60;99.90;;;;;;4987006;28;20033;-72
2022/12/24 10:53:34;;;;;;;20.55;3.28;;;10.60;99.90;;;;;;5021556;28;20097;-72
2022/12/24 10:56:04;;;;;;;23.08;4.72;;;10.60;99.90;;;;;;5018337;28;20025;-73
2022/12/24 10:58:31;;;;;;;29.58;3.95;;;10.60;99.90;;;;;;5017558;28;20030;-74
2022/12/24 11:00:57;;;;;;;20.05;3.38;;;10.50;99.90;;;;;;5019149;28;20026;-72
2022/12/24 11:03:37;;;;;;;27.75;3.63;;;10.60;99.90;;;;;;5018777;28;20037;-73
2022/12/24 11:06:11;;;;;;;33.07;4.83;;;10.60;99.90;;;;;;5020128;28;20044;-72
2022/12/24 11:08:40;;;;;;;20.85;2.83;;;10.60;99.90;;;;;;5016754;28;20034;-72
2022/12/24 11:11:10;;;;;;;20.98;3.92;;;10.60;99.90;;;;;;5020652;28;20041;-71
2022/12/24 11:13:53;;;;;;;27.05;4.57;;;10.50;99.90;;;;;;5016065;28;20065;-73
2022/12/24 11:16:32;;;;;;;19.58;4.95;;;10.50;99.90;;;;;;5015911;28;20509;-71
2022/12/24 11:19:01;;;;;;;17.48;3.78;;;10.50;99.90;;;;;;5014606;28;20030;-73
2022/12/24 11:21:29;;;;;;;19.35;2.97;;;10.50;99.90;;;;;;5014678;28;20414;-72
2022/12/24 11:23:58;;;;;;;15.20;3.55;;;10.50;99.90;;;;;;4998617;28;20033;-73
2022/12/24 11:26:27;;;;;;;21.73;4.80;;;10.40;99.90;;;;;;5012526;28;20048;-73
2022/12/24 11:29:03;;;;;;;22.63;3.92;;;10.40;99.90;;;;;;5018047;28;20271;-74
2022/12/24 11:31:31;;;;;;;21.20;2.38;;;10.40;99.90;;;;;;5019041;28;20046;-73
2022/12/24 11:33:57;;;;;;;17.08;2.53;;;10.40;99.90;;;;;;5017635;28;20034;-72
2022/12/24 11:36:25;;;;;;;19.40;3.22;;;10.30;99.90;;;;;;5021694;28;20119;-72
2022/12/24 11:38:58;;;;;;;20.05;2.35;;;10.30;99.90;;;;;;5016946;28;20038;-71
2022/12/24 11:41:25;;;;;;;21.85;2.20;;;10.30;99.90;;;;;;5019077;28;20065;-73
2022/12/24 11:44:00;;;;;;;20.08;4.25;;;10.30;99.90;;;;;;5017350;28;20470;-70
2022/12/24 11:46:37;;;;;;;15.52;2.17;;;10.20;99.90;;;;;;5018323;28;20171;-72
2022/12/24 11:49:14;;;;;;;32.60;5.70;;;10.20;99.90;;;;;;5017166;28;20064;-71
2022/12/24 11:52:05;;;;;;;12.00;2.20;;;10.20;99.90;;;;;;5012180;28;20050;-71
2022/12/24 11:54:36;;;;;;;18.70;3.40;;;10.20;99.90;;;;;;5013510;28;20482;-72
2022/12/24 11:57:03;;;;;;;19.38;4.43;;;10.30;99.90;;;;;;5015129;28;20034;-72
2022/12/24 11:59:41;;;;;;;17.83;3.78;;;10.40;99.90;;;;;;5003914;28;20037;-72
2022/12/24 12:02:25;;;;;;;14.75;2.72;;;10.50;99.90;;;;;;5013384;28;20382;-73
2022/12/24 12:05:09;;;;;;;17.65;2.58;;;10.50;99.90;;;;;;4996916;28;20640;-73
2022/12/24 12:07:37;;;;;;;23.00;2.35;;;10.60;99.90;;;;;;5014029;28;20064;-73
2022/12/24 12:10:09;;;;;;;23.60;3.95;;;10.70;99.90;;;;;;5016615;28;20158;-73
2022/12/24 12:12:40;;;;;;;21.27;3.38;;;10.60;99.90;;;;;;5014813;28;20116;-73
2022/12/24 12:15:15;;;;;;;17.00;2.42;;;10.70;99.90;;;;;;5015218;28;20034;-73
2022/12/24 12:17:49;;;;;;;17.25;2.63;;;10.60;99.90;;;;;;4995297;28;20054;-72
2022/12/24 12:20:57;;;;;;;15.50;2.78;;;10.60;99.90;;;;;;5015862;28;21461;-72
2022/12/24 12:23:29;;;;;;;15.35;2.30;;;10.50;99.90;;;;;;4934880;29;20043;-72
2022/12/24 12:25:58;;;;;;;19.05;3.05;;;10.60;99.90;;;;;;4931820;29;20051;-73
2022/12/24 12:28:35;;;;;;;14.90;1.73;;;10.60;99.90;;;;;;4983687;28;20076;-71
2022/12/24 12:31:03;;;;;;;14.18;2.17;;;10.60;99.90;;;;;;5014012;28;20068;-72
2022/12/24 12:33:48;;;;;;;15.48;2.47;;;10.60;99.90;;;;;;5017325;28;20030;-73
2022/12/24 12:36:20;;;;;;;16.75;2.25;;;10.60;99.90;;;;;;4995597;28;20496;-71
2022/12/24 12:38:45;;;;;;;21.27;2.60;;;10.60;99.90;;;;;;4999290;28;20056;-71
2022/12/24 12:41:43;;;;;;;16.15;2.88;;;10.60;99.90;;;;;;5015567;28;20568;-72
2022/12/24 12:44:12;;;;;;;16.17;3.03;;;10.60;99.90;;;;;;4993429;28;20068;-74
2022/12/24 12:46:47;;;;;;;18.42;3.00;;;10.60;99.90;;;;;;4993532;28;20064;-72
2022/12/24 12:49:29;;;;;;;24.13;2.25;;;10.60;99.90;;;;;;5014650;28;20112;-73
2022/12/24 12:52:04;;;;;;;17.88;2.60;;;10.60;99.90;;;;;;5016299;28;20065;-73
2022/12/24 12:55:01;;;;;;;14.38;1.98;;;10.60;99.90;;;;;;5014826;28;20040;-72
2022/12/24 12:57:32;;;;;;;19.83;3.15;;;10.60;99.90;;;;;;4977325;28;20045;-72
2022/12/24 13:00:10;;;;;;;13.25;1.83;;;10.60;99.90;;;;;;5013236;28;20044;-72
2022/12/24 13:02:58;;;;;;;18.38;2.95;;;10.60;99.90;;;;;;5009308;28;20026;-72
2022/12/24 13:05:47;;;;;;;27.02;3.33;;;10.60;99.90;;;;;;5011696;28;20036;-72